createdAt,value
2019-01-29T00:00:54.169Z,100200.52
2019-01-29T00:03:23.479Z,100206.62
2019-01-29T00:05:52.805Z,100200.52
2019-01-29T00:08:22.139Z,100203.59
2019-01-29T00:10:51.493Z,100207.50
2019-01-29T00:13:20.803Z,100203.59
2019-01-29T00:15:50.173Z,100218.38
2019-01-29T00:18:19.522Z,100210.55
2019-01-29T00:20:48.945Z,100215.35
2019-01-29T00:23:18.251Z,100230.98
2019-01-29T00:25:47.596Z,100233.61
2019-01-29T00:28:16.898Z,100229.73
2019-01-29T00:30:46.252Z,100235.80
2019-01-29T00:33:15.602Z,100242.29
2019-01-29T00:35:44.972Z,100250.95
2019-01-29T00:38:14.391Z,100240.08
2019-01-29T00:40:43.593Z,100239.66
2019-01-29T00:43:12.891Z,100251.36
2019-01-29T00:45:42.267Z,100256.14
2019-01-29T00:48:11.584Z,100252.69
2019-01-29T00:50:41.000Z,100254.41
2019-01-29T00:53:10.298Z,100263.94
2019-01-29T00:55:39.599Z,100266.96
2019-01-29T00:58:09.055Z,100265.22
2019-01-29T01:00:38.413Z,100262.17
2019-01-29T01:03:07.735Z,100272.56
2019-01-29T01:05:37.064Z,100269.08
2019-01-29T01:08:06.313Z,100277.73
2019-01-29T01:10:35.590Z,100274.23
2019-01-29T01:13:04.887Z,100272.52
2019-01-29T01:15:34.189Z,100280.31
2019-01-29T01:18:03.493Z,100279.42
2019-01-29T01:20:32.917Z,100283.31
2019-01-29T01:23:02.225Z,100291.55
2019-01-29T01:25:31.567Z,100295.02
2019-01-29T01:28:00.919Z,100292.83
2019-01-29T01:30:30.229Z,100306.25
2019-01-29T01:32:59.725Z,100307.97
2019-01-29T01:35:29.001Z,100300.63
2019-01-29T01:37:58.349Z,100306.66
2019-01-29T01:40:27.817Z,100314.93
2019-01-29T01:42:57.135Z,100307.08
2019-01-29T01:45:26.539Z,100305.34
2019-01-29T01:47:55.891Z,100314.87
2019-01-29T01:50:25.223Z,100313.57
2019-01-29T01:52:59.290Z,100318.79
2019-01-29T01:55:23.839Z,100312.69
2019-01-29T01:57:53.207Z,100314.85
2019-01-29T02:00:22.646Z,100318.73
2019-01-29T02:02:51.980Z,100325.70
2019-01-29T02:05:21.357Z,100328.31
2019-01-29T02:07:50.649Z,100322.59
2019-01-29T02:10:22.327Z,100319.56
2019-01-29T02:12:51.664Z,100319.98
2019-01-29T02:15:20.989Z,100339.55
2019-01-29T02:17:50.277Z,100347.34
2019-01-29T02:20:19.609Z,100335.60
2019-01-29T02:22:48.915Z,100339.45
2019-01-29T02:25:18.192Z,100341.17
2019-01-29T02:27:47.531Z,100337.67
2019-01-29T02:30:18.854Z,100335.95
2019-01-29T02:32:48.165Z,100349.41
2019-01-29T02:35:17.490Z,100350.69
2019-01-29T02:37:46.806Z,100345.50
2019-01-29T02:40:21.417Z,100355.47
2019-01-29T02:42:50.729Z,100364.16
2019-01-29T02:45:20.095Z,100365.48
2019-01-29T02:47:49.416Z,100355.05
2019-01-29T02:50:18.742Z,100349.39
2019-01-29T02:52:48.033Z,100356.77
2019-01-29T02:55:17.379Z,100371.56
2019-01-29T02:57:46.778Z,100367.23
2019-01-29T03:00:18.373Z,100357.21
2019-01-29T03:02:47.722Z,100367.67
2019-01-29T03:05:17.027Z,100362.87
2019-01-29T03:07:46.495Z,100374.64
2019-01-29T03:10:18.019Z,100368.95
2019-01-29T03:12:47.332Z,100374.17
2019-01-29T03:15:18.831Z,100372.00
2019-01-29T03:17:48.116Z,100378.47
2019-01-29T03:20:17.442Z,100380.66
2019-01-29T03:22:46.713Z,100383.72
2019-01-29T03:25:15.982Z,100385.87
2019-01-29T03:27:45.373Z,100387.22
2019-01-29T03:30:16.053Z,100395.90
2019-01-29T03:32:45.389Z,100395.02
2019-01-29T03:35:14.632Z,100401.14
2019-01-29T03:37:43.891Z,100399.42
2019-01-29T03:40:15.254Z,100407.28
2019-01-29T03:42:44.545Z,100399.89
2019-01-29T03:45:15.529Z,100415.99
2019-01-29T03:47:44.789Z,100410.37
2019-01-29T03:50:15.475Z,100409.95
2019-01-29T03:52:44.739Z,100416.48
2019-01-29T03:55:14.039Z,100420.84
2019-01-29T03:57:43.301Z,100417.81
2019-01-29T04:00:15.319Z,100426.50
2019-01-29T04:02:44.621Z,100423.84
2019-01-29T04:05:13.876Z,100422.14
2019-01-29T04:07:43.122Z,100421.75
2019-01-29T04:10:15.569Z,100430.86
2019-01-29T04:12:42.892Z,100427.41
2019-01-29T04:15:14.165Z,100427.83
2019-01-29T04:17:43.440Z,100427.38
2019-01-29T04:20:15.364Z,100431.73
2019-01-29T04:22:45.940Z,100438.23
2019-01-29T04:25:13.893Z,100428.69
2019-01-29T04:27:43.334Z,100441.28
2019-01-29T04:30:18.062Z,100450.80
2019-01-29T04:32:47.336Z,100453.45
2019-01-29T04:35:16.666Z,100459.93
2019-01-29T04:37:46.017Z,100457.35
2019-01-29T04:40:17.096Z,100452.95
2019-01-29T04:42:46.451Z,100455.58
2019-01-29T04:45:16.115Z,100466.46
2019-01-29T04:47:45.474Z,100456.00
2019-01-29T04:50:19.567Z,100453.81
2019-01-29T04:52:48.860Z,100447.31
2019-01-29T04:55:18.279Z,100460.80
2019-01-29T04:57:47.585Z,100445.91
2019-01-29T05:00:19.014Z,100461.97
2019-01-29T05:02:48.394Z,100454.63
2019-01-29T05:05:18.622Z,100463.73
2019-01-29T05:07:48.052Z,100460.71
2019-01-29T05:10:17.492Z,100463.34
2019-01-29T05:12:46.766Z,100462.04
2019-01-29T05:15:16.332Z,100465.97
2019-01-29T05:17:45.655Z,100458.13
2019-01-29T05:20:17.524Z,100462.90
2019-01-29T05:22:46.829Z,100464.69
2019-01-29T05:25:16.288Z,100469.91
2019-01-29T05:27:45.655Z,100469.07
2019-01-29T05:30:20.765Z,100465.15
2019-01-29T05:32:49.000Z,100466.02
2019-01-29T05:35:18.359Z,100459.50
2019-01-29T05:37:47.723Z,100462.08
2019-01-29T05:40:17.994Z,100465.94
2019-01-29T05:42:47.248Z,100462.92
2019-01-29T05:45:17.687Z,100472.91
2019-01-29T05:47:46.942Z,100473.80
2019-01-29T05:50:16.207Z,100467.25
2019-01-29T05:52:45.482Z,100472.49
2019-01-29T05:55:14.852Z,100480.27
2019-01-29T05:57:44.080Z,100484.66
2019-01-29T06:00:21.178Z,100474.22
2019-01-29T06:02:50.562Z,100493.31
2019-01-29T06:05:19.883Z,100493.76
2019-01-29T06:07:49.272Z,100489.39
2019-01-29T06:10:18.581Z,100491.55
2019-01-29T06:12:47.883Z,100481.98
2019-01-29T06:15:18.228Z,100491.97
2019-01-29T06:17:47.503Z,100495.88
2019-01-29T06:20:21.547Z,100492.78
2019-01-29T06:22:50.777Z,100498.42
2019-01-29T06:25:20.040Z,100500.59
2019-01-29T06:27:49.414Z,100500.59
2019-01-29T06:30:19.802Z,100508.46
2019-01-29T06:32:49.127Z,100506.25
2019-01-29T06:35:18.778Z,100501.48
2019-01-29T06:37:48.067Z,100504.09
2019-01-29T06:40:19.304Z,100511.50
2019-01-29T06:42:48.633Z,100511.94
2019-01-29T06:45:18.554Z,100521.98
2019-01-29T06:47:47.938Z,100525.42
2019-01-29T06:50:19.171Z,100518.94
2019-01-29T06:52:48.586Z,100519.83
2019-01-29T06:55:19.189Z,100518.96
2019-01-29T06:57:55.090Z,100522.86
2019-01-29T07:00:20.316Z,100533.31
2019-01-29T07:02:49.850Z,100529.40
2019-01-29T07:05:19.226Z,100529.87
2019-01-29T07:07:48.900Z,100528.56
2019-01-29T07:10:18.832Z,100533.35
2019-01-29T07:12:48.310Z,100542.92
2019-01-29T07:15:41.163Z,100537.73
2019-01-29T07:18:29.820Z,100532.94
2019-01-29T07:20:59.095Z,100538.61
2019-01-29T07:23:28.422Z,100537.31
2019-01-29T07:25:57.742Z,100541.27
2019-01-29T07:28:27.032Z,100539.53
2019-01-29T07:30:56.426Z,100550.85
2019-01-29T07:33:25.830Z,100545.22
2019-01-29T07:35:55.129Z,100549.09
2019-01-29T07:38:24.743Z,100549.98
2019-01-29T07:40:54.308Z,100543.43
2019-01-29T07:43:23.649Z,100554.75
2019-01-29T07:45:52.935Z,100555.16
2019-01-29T07:48:22.266Z,100561.25
2019-01-29T07:50:51.563Z,100555.59
2019-01-29T07:53:21.013Z,100553.83
2019-01-29T07:55:50.202Z,100562.97
2019-01-29T07:58:19.547Z,100569.47
2019-01-29T08:00:48.855Z,100564.20
2019-01-29T08:03:18.556Z,100561.08
2019-01-29T08:05:47.850Z,100559.30
2019-01-29T08:08:17.119Z,100562.23
2019-01-29T08:10:46.452Z,100555.19
2019-01-29T08:13:15.879Z,100549.80
2019-01-29T08:15:45.365Z,100552.71
2019-01-29T08:18:14.798Z,100554.88
2019-01-29T08:20:44.192Z,100558.77
2019-01-29T08:23:13.690Z,100562.72
2019-01-29T08:25:47.844Z,100564.05
2019-01-29T08:28:12.395Z,100569.33
2019-01-29T08:30:41.723Z,100568.05
2019-01-29T08:33:10.995Z,100572.39
2019-01-29T08:35:41.658Z,100565.92
2019-01-29T08:38:09.717Z,100568.09
2019-01-29T08:40:39.075Z,100579.00
2019-01-29T08:43:08.286Z,100584.25
2019-01-29T08:45:37.572Z,100580.73
2019-01-29T08:48:06.897Z,100581.59
2019-01-29T08:50:36.240Z,100578.92
2019-01-29T08:53:05.638Z,100589.37
2019-01-29T08:55:34.902Z,100582.39
2019-01-29T08:58:04.375Z,100592.84
2019-01-29T09:00:33.735Z,100586.31
2019-01-29T09:03:03.149Z,100599.77
2019-01-29T09:05:32.622Z,100590.18
2019-01-29T09:08:02.065Z,100597.09
2019-01-29T09:10:31.327Z,100593.51
2019-01-29T09:13:00.620Z,100596.13
2019-01-29T09:15:30.046Z,100596.55
2019-01-29T09:17:59.352Z,100595.69
2019-01-29T09:20:28.668Z,100595.76
2019-01-29T09:22:58.268Z,100605.77
2019-01-29T09:25:27.641Z,100597.92
2019-01-29T09:27:57.091Z,100612.76
2019-01-29T09:30:26.633Z,100610.20
2019-01-29T09:32:56.054Z,100608.87
2019-01-29T09:35:25.428Z,100605.88
2019-01-29T09:37:55.049Z,100606.80
2019-01-29T09:40:24.465Z,100598.03
2019-01-29T09:42:53.817Z,100605.42
2019-01-29T09:45:23.242Z,100604.47
2019-01-29T09:47:52.609Z,100595.76
2019-01-29T09:50:22.338Z,100602.78
2019-01-29T09:52:51.733Z,100608.77
2019-01-29T09:55:29.010Z,100597.41
2019-01-29T09:57:50.659Z,100601.22
2019-01-29T10:00:33.672Z,100601.66
2019-01-29T10:03:03.073Z,100599.46
2019-01-29T10:05:32.406Z,100597.25
2019-01-29T10:08:01.847Z,100608.54
2019-01-29T10:10:31.078Z,100604.62
2019-01-29T10:13:00.403Z,100600.24
2019-01-29T10:15:32.649Z,100601.06
2019-01-29T10:18:02.967Z,100600.66
2019-01-29T10:20:32.390Z,100598.89
2019-01-29T10:23:05.753Z,100595.79
2019-01-29T10:25:37.978Z,100593.95
2019-01-29T10:28:02.529Z,100583.31
2019-01-29T10:30:31.869Z,100592.52
2019-01-29T10:33:01.187Z,100590.30
2019-01-29T10:35:30.526Z,100586.83
2019-01-29T10:37:59.933Z,100586.23
2019-01-29T10:40:29.342Z,100583.08
2019-01-29T10:42:58.744Z,100580.46
2019-01-29T10:45:28.996Z,100573.02
2019-01-29T10:47:58.405Z,100583.38
2019-01-29T10:50:28.432Z,100586.21
2019-01-29T10:52:57.953Z,100567.27
2019-01-29T10:55:27.333Z,100566.66
2019-01-29T10:57:56.650Z,100568.55
2019-01-29T11:00:32.358Z,100559.02
2019-01-29T11:03:01.664Z,100554.94
2019-01-29T11:05:31.099Z,100554.74
2019-01-29T11:08:00.292Z,100553.66
2019-01-29T11:10:29.599Z,100546.55
2019-01-29T11:12:58.955Z,100544.11
2019-01-29T11:15:32.159Z,100545.97
2019-01-29T11:18:00.686Z,100549.52
2019-01-29T11:20:30.166Z,100545.48
2019-01-29T11:22:59.483Z,100538.34
2019-01-29T11:25:29.427Z,100542.79
2019-01-29T11:27:58.810Z,100544.05
2019-01-29T11:30:29.075Z,100544.48
2019-01-29T11:32:58.394Z,100542.63
2019-01-29T11:35:27.739Z,100548.38
2019-01-29T11:37:57.083Z,100538.83
2019-01-29T11:40:28.064Z,100549.39
2019-01-29T11:42:57.322Z,100544.22
2019-01-29T11:45:38.924Z,100559.97
2019-01-29T11:48:08.222Z,100551.38
2019-01-29T11:50:37.562Z,100553.97
2019-01-29T11:53:07.020Z,100552.28
2019-01-29T11:55:36.383Z,100553.42
2019-01-29T11:58:06.018Z,100554.34
2019-01-29T12:00:47.627Z,100540.47
2019-01-29T12:03:17.385Z,100547.78
2019-01-29T12:05:46.691Z,100536.42
2019-01-29T12:08:16.198Z,100545.41
2019-01-29T12:10:45.564Z,100544.95
2019-01-29T12:13:14.987Z,100543.11
2019-01-29T12:15:44.345Z,100541.29
2019-01-29T12:18:13.721Z,100541.84
2019-01-29T12:20:43.063Z,100540.89
2019-01-29T12:23:12.619Z,100538.31
2019-01-29T12:25:41.899Z,100533.09
2019-01-29T12:28:11.220Z,100534.50
2019-01-29T12:30:40.558Z,100528.30
2019-01-29T12:33:10.740Z,100529.87
2019-01-29T12:35:40.259Z,100530.72
2019-01-29T12:38:09.607Z,100525.93
2019-01-29T12:40:38.907Z,100526.28
2019-01-29T12:43:08.235Z,100518.98
2019-01-29T12:45:37.664Z,100524.52
2019-01-29T12:48:06.984Z,100524.98
2019-01-29T12:50:36.270Z,100528.46
2019-01-29T12:53:17.041Z,100521.36
2019-01-29T12:55:46.491Z,100525.02
2019-01-29T12:58:15.869Z,100415.20
2019-01-29T13:00:47.541Z,100516.88
2019-01-29T13:03:16.855Z,100509.61
2019-01-29T13:05:46.211Z,100503.58
2019-01-29T13:08:15.559Z,100507.09
2019-01-29T13:10:44.904Z,100505.03
2019-01-29T13:13:14.256Z,100501.28
2019-01-29T13:15:43.640Z,100508.27
2019-01-29T13:18:12.965Z,100494.34
2019-01-29T13:20:42.252Z,100497.40
2019-01-29T13:23:11.655Z,100497.72
2019-01-29T13:25:40.986Z,100495.06
2019-01-29T13:28:10.300Z,100496.77
2019-01-29T13:30:39.729Z,100489.32
2019-01-29T13:33:11.705Z,100493.66
2019-01-29T13:35:41.147Z,100495.86
2019-01-29T13:38:10.513Z,100492.34
2019-01-29T13:40:39.792Z,100487.97
2019-01-29T13:43:09.113Z,100485.41
2019-01-29T13:45:38.515Z,100487.66
2019-01-29T13:48:07.886Z,100484.50
2019-01-29T13:50:40.329Z,100485.56
2019-01-29T13:53:09.721Z,100481.03
2019-01-29T13:55:39.033Z,100479.39
2019-01-29T13:58:08.773Z,100481.63
2019-01-29T14:00:40.691Z,100479.05
2019-01-29T14:03:11.125Z,100478.43
2019-01-29T14:05:40.425Z,100476.89
2019-01-29T14:08:09.809Z,100469.44
2019-01-29T14:10:39.082Z,100475.94
2019-01-29T14:13:08.375Z,100472.96
2019-01-29T14:15:49.551Z,100469.98
2019-01-29T14:18:20.520Z,100480.23
2019-01-29T14:20:49.815Z,100470.48
2019-01-29T14:23:19.178Z,100469.48
2019-01-29T14:25:48.484Z,100470.55
2019-01-29T14:28:17.780Z,100467.33
2019-01-29T14:30:47.066Z,100463.06
2019-01-29T14:33:16.356Z,100461.08
2019-01-29T14:35:45.699Z,100457.28
2019-01-29T14:39:17.878Z,100461.39
2019-01-29T14:41:47.176Z,100454.51
2019-01-29T14:44:28.233Z,100457.59
2019-01-29T14:46:57.524Z,100456.73
2019-01-29T14:49:26.826Z,100455.98
2019-01-29T14:51:56.069Z,100447.69
2019-01-29T14:54:25.372Z,100455.27
2019-01-29T14:56:56.959Z,100459.64
2019-01-29T14:59:24.004Z,100453.72
2019-01-29T15:01:53.254Z,100452.17
2019-01-29T15:04:22.556Z,100442.56
2019-01-29T15:06:51.889Z,100433.50
2019-01-29T15:09:21.203Z,100435.27
2019-01-29T15:11:50.515Z,100433.05
2019-01-29T15:14:19.803Z,100431.85
2019-01-29T15:17:20.553Z,100437.98
2019-01-29T15:19:49.848Z,100429.34
2019-01-29T15:22:19.226Z,100425.88
2019-01-29T15:24:48.558Z,100429.80
2019-01-29T15:27:17.920Z,100424.63
2019-01-29T15:29:47.231Z,100428.14
2019-01-29T15:32:16.512Z,100434.38
2019-01-29T15:34:45.843Z,100425.27
2019-01-29T15:37:15.267Z,100420.90
2019-01-29T15:39:44.551Z,100419.28
2019-01-29T15:42:13.879Z,100417.48
2019-01-29T15:44:43.167Z,100411.48
2019-01-29T15:47:12.515Z,100408.11
2019-01-29T15:49:41.820Z,100409.52
2019-01-29T15:52:11.118Z,100406.59
2019-01-29T15:54:40.392Z,100414.53
2019-01-29T15:57:14.334Z,100407.22
2019-01-29T15:59:43.129Z,100402.53
2019-01-29T16:02:08.356Z,100411.36
2019-01-29T16:04:37.739Z,100404.45
2019-01-29T16:07:07.089Z,100402.41
2019-01-29T16:09:36.446Z,100402.45
2019-01-29T16:12:06.113Z,100402.45
2019-01-29T16:14:35.494Z,100408.83
2019-01-29T16:17:04.905Z,100407.47
2019-01-29T16:19:34.227Z,100407.40
2019-01-29T16:22:03.560Z,100401.76
2019-01-29T16:24:32.939Z,100400.91
2019-01-29T16:27:06.937Z,100395.67
2019-01-29T16:29:31.697Z,100393.92
2019-01-29T16:32:01.059Z,100395.39
2019-01-29T16:34:30.525Z,100382.90
2019-01-29T16:36:59.971Z,100381.75
2019-01-29T16:39:29.287Z,100381.00
2019-01-29T16:41:58.644Z,100381.55
2019-01-29T16:44:28.710Z,100378.19
2019-01-29T16:46:58.176Z,100376.09
2019-01-29T16:49:27.466Z,100373.98
2019-01-29T16:51:56.751Z,100367.91
2019-01-29T16:54:26.124Z,100367.11
2019-01-29T16:56:55.404Z,100371.12
2019-01-29T16:59:24.734Z,100379.86
2019-01-29T17:01:54.055Z,100372.50
2019-01-29T17:04:23.361Z,100370.37
2019-01-29T17:06:52.650Z,100365.63
2019-01-29T17:09:22.044Z,100363.93
2019-01-29T17:11:51.387Z,100357.88
2019-01-29T17:14:20.739Z,100353.57
2019-01-29T17:16:50.080Z,100363.14
2019-01-29T17:19:19.387Z,100351.44
2019-01-29T17:22:12.060Z,100351.02
2019-01-29T17:25:01.837Z,100351.45
2019-01-29T17:31:25.248Z,100349.77
2019-01-29T17:34:39.083Z,100341.97
2019-01-29T17:43:20.452Z,100339.84
2019-01-29T17:45:52.144Z,100332.05
2019-01-29T17:48:21.509Z,100326.85
2019-01-29T17:50:50.820Z,100339.48
2019-01-29T17:53:20.091Z,100338.18
2019-01-29T17:55:49.548Z,100341.23
2019-01-29T17:58:18.876Z,100088.59
2019-01-29T18:00:54.585Z,100333.42
2019-01-29T18:03:24.081Z,100321.67
2019-01-29T18:05:53.528Z,100325.11
2019-01-29T18:08:22.947Z,100324.67
2019-01-29T18:10:52.248Z,100318.59
2019-01-29T18:13:21.705Z,100316.43
2019-01-29T18:15:51.580Z,100316.84
2019-01-29T18:18:20.925Z,100314.69
2019-01-29T18:20:50.392Z,100309.86
2019-01-29T18:23:19.923Z,100302.94
2019-01-29T18:25:49.357Z,100304.23
2019-01-29T18:28:18.879Z,100299.44
2019-01-29T18:30:48.269Z,100302.91
2019-01-29T18:33:17.721Z,100307.68
2019-01-29T18:35:47.002Z,100309.87
2019-01-29T18:38:16.372Z,100309.45
2019-01-29T18:40:51.796Z,100302.07
2019-01-29T18:43:21.201Z,100308.61
2019-01-29T18:45:50.572Z,100302.56
2019-01-29T18:48:19.979Z,100300.84
2019-01-29T18:50:49.399Z,100296.95
2019-01-29T18:53:18.754Z,100297.84
2019-01-29T18:55:48.088Z,100301.33
2019-01-29T18:58:17.510Z,100298.28
2019-01-29T19:00:54.288Z,100299.16
2019-01-29T19:03:16.629Z,100292.25
2019-01-29T19:05:46.037Z,100293.99
2019-01-29T19:08:15.413Z,100284.45
2019-01-29T19:10:44.812Z,100282.73
2019-01-29T19:13:14.131Z,100285.80
2019-01-29T19:15:43.490Z,100284.52
2019-01-29T19:18:12.938Z,100280.19
2019-01-29T19:20:42.439Z,100283.65
2019-01-29T19:23:12.002Z,100282.38
2019-01-29T19:25:41.357Z,100278.48
2019-01-29T19:28:10.791Z,100278.91
2019-01-29T19:30:40.138Z,100283.25
2019-01-29T19:33:09.468Z,100271.53
2019-01-29T19:35:38.858Z,100270.23
2019-01-29T19:38:08.230Z,100271.09
2019-01-29T19:40:40.361Z,100278.91
2019-01-29T19:43:07.210Z,100269.36
2019-01-29T19:45:36.538Z,100271.55
2019-01-29T19:48:07.420Z,100275.89
2019-01-29T19:50:36.930Z,100268.48
2019-01-29T19:53:06.483Z,100270.50
2019-01-29T19:55:36.076Z,100271.05
2019-01-29T19:58:09.101Z,100271.60
2019-01-29T20:00:37.314Z,100212.81
2019-01-29T20:03:06.697Z,100273.93
2019-01-29T20:05:36.057Z,100264.95
2019-01-29T20:08:05.375Z,100258.55
2019-01-29T20:10:34.908Z,100264.28
2019-01-29T20:13:04.725Z,100260.89
2019-01-29T20:15:34.048Z,100259.20
2019-01-29T20:18:03.486Z,100271.83
2019-01-29T20:20:35.536Z,100261.02
2019-01-29T20:23:08.026Z,100258.84
2019-01-29T20:25:34.362Z,100251.45
2019-01-29T20:28:03.686Z,100257.13
2019-01-29T20:30:34.665Z,100245.83
2019-01-29T20:33:05.348Z,100248.43
2019-01-29T20:35:33.472Z,100244.97
2019-01-29T20:38:02.818Z,100246.69
2019-01-29T20:40:32.204Z,100243.19
2019-01-29T20:43:01.627Z,100244.50
2019-01-29T20:45:30.931Z,100240.17
2019-01-29T20:48:00.253Z,100243.64
2019-01-29T20:50:32.007Z,100234.96
2019-01-29T20:53:01.399Z,100231.49
2019-01-29T20:55:30.847Z,100236.28
2019-01-29T20:58:00.251Z,100238.03
2019-01-29T21:00:31.934Z,100229.80
2019-01-29T21:03:01.310Z,100237.61
2019-01-29T21:05:30.624Z,100232.43
2019-01-29T21:08:00.604Z,100232.01
2019-01-29T21:10:29.347Z,100232.86
2019-01-29T21:12:59.245Z,100224.66
2019-01-29T21:15:38.115Z,100226.81
2019-01-29T21:18:04.546Z,100231.17
2019-01-29T21:20:39.764Z,100227.26
2019-01-29T21:23:09.679Z,100214.70
2019-01-29T21:25:42.957Z,100212.98
2019-01-29T21:28:13.291Z,100208.62
2019-01-29T21:30:49.444Z,100209.35
2019-01-29T21:33:16.490Z,100208.34
2019-01-29T21:35:45.849Z,100203.04
2019-01-29T21:38:15.136Z,100203.48
2019-01-29T21:40:44.970Z,100203.52
2019-01-29T21:43:17.121Z,100199.69
2019-01-29T21:45:45.763Z,100202.82
2019-01-29T21:48:18.050Z,100203.31
2019-01-29T21:50:47.634Z,100204.22
2019-01-29T21:53:16.903Z,100199.53
2019-01-29T21:55:46.188Z,100203.00
2019-01-29T21:58:15.631Z,100203.03
2019-01-29T22:00:45.810Z,100200.02
2019-01-29T22:03:15.922Z,100201.34
2019-01-29T22:05:45.375Z,100196.16
2019-01-29T22:08:14.780Z,100195.30
2019-01-29T22:10:44.148Z,100186.20
2019-01-29T22:13:13.857Z,100192.77
2019-01-29T22:15:43.424Z,100187.58
2019-01-29T22:18:14.045Z,100187.59
2019-01-29T22:20:43.434Z,100180.66
2019-01-29T22:23:13.012Z,100181.12
2019-01-29T22:25:42.397Z,100174.63
2019-01-29T22:28:11.874Z,100172.91
2019-01-29T22:30:42.469Z,100174.64
2019-01-29T22:33:11.826Z,100163.82
2019-01-29T22:35:41.358Z,100170.33
2019-01-29T22:38:10.698Z,100162.52
2019-01-29T22:40:40.071Z,100163.39
2019-01-29T22:43:09.502Z,100158.21
2019-01-29T22:45:38.870Z,100161.67
2019-01-29T22:48:09.211Z,100163.44
2019-01-29T22:50:40.318Z,100157.78
2019-01-29T22:53:09.625Z,100159.95
2019-01-29T22:55:39.079Z,100146.13
2019-01-29T22:58:08.546Z,100156.52
2019-01-29T23:01:11.722Z,100145.68
2019-01-29T23:03:43.924Z,100143.05
2019-01-29T23:06:46.989Z,100134.81
2019-01-29T23:09:16.341Z,100130.48
2019-01-29T23:11:45.740Z,100127.45
2019-01-29T23:14:15.152Z,100130.03
2019-01-29T23:16:44.512Z,100116.15
2019-01-29T23:19:13.798Z,100121.34
2019-01-29T23:21:43.113Z,100120.89
2019-01-29T23:24:12.402Z,100117.85
2019-01-29T23:26:41.709Z,100116.11
2019-01-29T23:29:10.974Z,100112.18
2019-01-29T23:31:40.322Z,100107.87
2019-01-29T23:34:09.611Z,100101.75
2019-01-29T23:36:38.908Z,100100.89
2019-01-29T23:39:09.074Z,100101.75
2019-01-29T23:41:38.345Z,100096.55
2019-01-29T23:44:07.674Z,100097.85
2019-01-29T23:46:37.044Z,100089.19
2019-01-29T23:49:06.352Z,100083.09
2019-01-29T23:51:35.680Z,100081.80
2019-01-29T23:54:05.333Z,100086.98
2019-01-29T23:56:34.687Z,100082.66
2019-01-29T23:59:03.986Z,100080.52
